Terminal Aerodrome Forecast
Issued by NWS

Home | Current Version | Previous Version | Text Only | Print | Product List | Glossary On
Versions: 1 2 3 4 5 6 7 8 9 10 11 12 13 14 15 16 17 18 19 20 21 22 23 24 25 26 27 28 29 30 31 32 33
000
FTUS45 KCYS 021100 CCA
TAFLAR
TAF COR
KLAR 021155Z 0212/0312 18006KT 1/4SM FG FEW001
     FM021300 23008KT P6SM SKC
     FM021700 28018G28KT P6SM SCT100
     FM030300 32010KT P6SM BKN025 OVC050
     FM030900 30010KT P6SM SCT050=

USA.gov is the U.S. government's official web portal to all federal, state and local government web resources and services.